sensor_id;sensor_type;location;lat;lon;timestamp;P1;durP1;ratioP1;P2;durP2;ratioP2
13415;SDS011;6779;50.150;8.680;2023-04-03T00:02:11;3.10;;;2.80;;
13415;SDS011;6779;50.150;8.680;2023-04-03T00:04:36;3.40;;;2.47;;
13415;SDS011;6779;50.150;8.680;2023-04-03T00:07:01;2.87;;;2.60;;
13415;SDS011;6779;50.150;8.680;2023-04-03T00:09:27;5.47;;;2.90;;
13415;SDS011;6779;50.150;8.680;2023-04-03T00:11:52;4.30;;;2.50;;
13415;SDS011;6779;50.150;8.680;2023-04-03T00:14:17;3.60;;;2.93;;
13415;SDS011;6779;50.150;8.680;2023-04-03T00:16:42;3.80;;;2.60;;
13415;SDS011;6779;50.150;8.680;2023-04-03T00:19:08;4.00;;;2.53;;
13415;SDS011;6779;50.150;8.680;2023-04-03T00:21:33;3.27;;;2.60;;
13415;SDS011;6779;50.150;8.680;2023-04-03T00:23:59;3.40;;;2.27;;
13415;SDS011;6779;50.150;8.680;2023-04-03T00:26:24;4.53;;;2.60;;
13415;SDS011;6779;50.150;8.680;2023-04-03T00:28:50;2.83;;;1.90;;
13415;SDS011;6779;50.150;8.680;2023-04-03T00:31:15;4.53;;;2.60;;
13415;SDS011;6779;50.150;8.680;2023-04-03T00:33:41;3.87;;;2.00;;
13415;SDS011;6779;50.150;8.680;2023-04-03T00:36:07;3.70;;;2.70;;
13415;SDS011;6779;50.150;8.680;2023-04-03T00:38:34;3.40;;;2.70;;
13415;SDS011;6779;50.150;8.680;2023-04-03T00:40:59;5.27;;;2.73;;
13415;SDS011;6779;50.150;8.680;2023-04-03T00:43:25;4.33;;;2.23;;
13415;SDS011;6779;50.150;8.680;2023-04-03T00:45:52;4.13;;;2.57;;
13415;SDS011;6779;50.150;8.680;2023-04-03T00:48:27;2.53;;;2.23;;
13415;SDS011;6779;50.150;8.680;2023-04-03T00:51:22;2.77;;;2.23;;
13415;SDS011;6779;50.150;8.680;2023-04-03T00:53:50;3.97;;;2.80;;
13415;SDS011;6779;50.150;8.680;2023-04-03T00:56:19;4.80;;;2.50;;
13415;SDS011;6779;50.150;8.680;2023-04-03T01:01:24;4.77;;;2.47;;
13415;SDS011;6779;50.150;8.680;2023-04-03T01:03:50;3.93;;;2.60;;
13415;SDS011;6779;50.150;8.680;2023-04-03T01:06:16;4.30;;;2.70;;
13415;SDS011;6779;50.150;8.680;2023-04-03T01:08:42;4.50;;;2.30;;
13415;SDS011;6779;50.150;8.680;2023-04-03T01:11:08;6.93;;;2.50;;
13415;SDS011;6779;50.150;8.680;2023-04-03T01:13:33;4.53;;;2.60;;
13415;SDS011;6779;50.150;8.680;2023-04-03T01:16:02;3.03;;;2.63;;
13415;SDS011;6779;50.150;8.680;2023-04-03T01:18:29;4.27;;;3.03;;
13415;SDS011;6779;50.150;8.680;2023-04-03T01:23:32;4.83;;;2.70;;
13415;SDS011;6779;50.150;8.680;2023-04-03T01:26:07;2.97;;;2.30;;
13415;SDS011;6779;50.150;8.680;2023-04-03T01:28:35;5.70;;;2.73;;
13415;SDS011;6779;50.150;8.680;2023-04-03T01:34:05;4.97;;;2.77;;
13415;SDS011;6779;50.150;8.680;2023-04-03T01:36:30;2.60;;;2.07;;
13415;SDS011;6779;50.150;8.680;2023-04-03T01:38:57;3.23;;;2.17;;
13415;SDS011;6779;50.150;8.680;2023-04-03T01:41:24;3.93;;;2.87;;
13415;SDS011;6779;50.150;8.680;2023-04-03T01:43:50;3.53;;;2.40;;
13415;SDS011;6779;50.150;8.680;2023-04-03T01:46:16;5.40;;;2.43;;
13415;SDS011;6779;50.150;8.680;2023-04-03T01:48:42;3.17;;;2.37;;
13415;SDS011;6779;50.150;8.680;2023-04-03T01:51:07;2.80;;;2.27;;
13415;SDS011;6779;50.150;8.680;2023-04-03T01:53:32;3.20;;;2.20;;
13415;SDS011;6779;50.150;8.680;2023-04-03T01:55:58;4.80;;;2.47;;
13415;SDS011;6779;50.150;8.680;2023-04-03T01:58:23;2.57;;;2.17;;
13415;SDS011;6779;50.150;8.680;2023-04-03T02:00:48;3.70;;;2.53;;
13415;SDS011;6779;50.150;8.680;2023-04-03T02:03:14;2.80;;;2.40;;
13415;SDS011;6779;50.150;8.680;2023-04-03T02:05:40;5.30;;;3.27;;
13415;SDS011;6779;50.150;8.680;2023-04-03T02:08:05;3.03;;;2.43;;
13415;SDS011;6779;50.150;8.680;2023-04-03T02:10:30;2.80;;;2.20;;
13415;SDS011;6779;50.150;8.680;2023-04-03T02:12:56;4.00;;;2.60;;
13415;SDS011;6779;50.150;8.680;2023-04-03T02:15:21;5.17;;;2.30;;
13415;SDS011;6779;50.150;8.680;2023-04-03T02:17:46;3.53;;;2.40;;
13415;SDS011;6779;50.150;8.680;2023-04-03T02:20:12;4.13;;;2.73;;
13415;SDS011;6779;50.150;8.680;2023-04-03T02:22:37;3.10;;;2.30;;
13415;SDS011;6779;50.150;8.680;2023-04-03T02:25:02;3.43;;;2.50;;
13415;SDS011;6779;50.150;8.680;2023-04-03T02:27:28;5.53;;;2.83;;
13415;SDS011;6779;50.150;8.680;2023-04-03T02:29:53;5.87;;;2.93;;
13415;SDS011;6779;50.150;8.680;2023-04-03T02:32:19;6.63;;;2.80;;
13415;SDS011;6779;50.150;8.680;2023-04-03T02:34:44;4.27;;;2.27;;
13415;SDS011;6779;50.150;8.680;2023-04-03T02:37:10;3.03;;;2.50;;
13415;SDS011;6779;50.150;8.680;2023-04-03T02:39:35;4.10;;;2.40;;
13415;SDS011;6779;50.150;8.680;2023-04-03T02:42:00;2.80;;;2.40;;
13415;SDS011;6779;50.150;8.680;2023-04-03T02:44:26;5.30;;;2.20;;
13415;SDS011;6779;50.150;8.680;2023-04-03T02:46:51;3.63;;;2.33;;
13415;SDS011;6779;50.150;8.680;2023-04-03T02:49:16;3.97;;;3.13;;
13415;SDS011;6779;50.150;8.680;2023-04-03T02:51:41;3.10;;;2.23;;
13415;SDS011;6779;50.150;8.680;2023-04-03T02:54:07;4.30;;;2.27;;
13415;SDS011;6779;50.150;8.680;2023-04-03T02:56:32;4.47;;;2.67;;
13415;SDS011;6779;50.150;8.680;2023-04-03T02:58:58;4.17;;;2.40;;
13415;SDS011;6779;50.150;8.680;2023-04-03T03:01:23;4.90;;;2.67;;
13415;SDS011;6779;50.150;8.680;2023-04-03T03:03:49;5.00;;;2.60;;
13415;SDS011;6779;50.150;8.680;2023-04-03T03:06:15;5.57;;;2.47;;
13415;SDS011;6779;50.150;8.680;2023-04-03T03:08:41;4.63;;;2.50;;
13415;SDS011;6779;50.150;8.680;2023-04-03T03:11:07;3.83;;;2.00;;
13415;SDS011;6779;50.150;8.680;2023-04-03T03:13:33;5.30;;;2.63;;
13415;SDS011;6779;50.150;8.680;2023-04-03T03:15:58;4.83;;;2.20;;
13415;SDS011;6779;50.150;8.680;2023-04-03T03:18:24;4.63;;;2.30;;
13415;SDS011;6779;50.150;8.680;2023-04-03T03:20:53;3.90;;;2.17;;
13415;SDS011;6779;50.150;8.680;2023-04-03T03:23:19;6.43;;;2.70;;
13415;SDS011;6779;50.150;8.680;2023-04-03T03:25:45;3.53;;;2.10;;
13415;SDS011;6779;50.150;8.680;2023-04-03T03:28:10;6.63;;;2.43;;
13415;SDS011;6779;50.150;8.680;2023-04-03T03:30:36;5.30;;;2.30;;
13415;SDS011;6779;50.150;8.680;2023-04-03T03:33:02;2.50;;;1.70;;
13415;SDS011;6779;50.150;8.680;2023-04-03T03:35:27;4.80;;;2.10;;
13415;SDS011;6779;50.150;8.680;2023-04-03T03:37:52;4.50;;;1.90;;
13415;SDS011;6779;50.150;8.680;2023-04-03T03:40:18;2.27;;;1.60;;
13415;SDS011;6779;50.150;8.680;2023-04-03T03:42:43;3.27;;;1.67;;
13415;SDS011;6779;50.150;8.680;2023-04-03T03:45:08;2.97;;;2.00;;
13415;SDS011;6779;50.150;8.680;2023-04-03T03:47:34;6.37;;;2.13;;
13415;SDS011;6779;50.150;8.680;2023-04-03T03:50:00;5.57;;;1.97;;
13415;SDS011;6779;50.150;8.680;2023-04-03T03:52:26;3.40;;;1.70;;
13415;SDS011;6779;50.150;8.680;2023-04-03T03:54:51;2.57;;;1.57;;
13415;SDS011;6779;50.150;8.680;2023-04-03T03:57:16;5.30;;;2.23;;
13415;SDS011;6779;50.150;8.680;2023-04-03T03:59:41;3.80;;;1.87;;
13415;SDS011;6779;50.150;8.680;2023-04-03T04:02:08;4.33;;;1.90;;
13415;SDS011;6779;50.150;8.680;2023-04-03T04:04:34;3.60;;;1.57;;
13415;SDS011;6779;50.150;8.680;2023-04-03T04:06:59;5.10;;;1.90;;
13415;SDS011;6779;50.150;8.680;2023-04-03T04:09:25;3.63;;;1.93;;
13415;SDS011;6779;50.150;8.680;2023-04-03T04:11:51;3.53;;;1.60;;
13415;SDS011;6779;50.150;8.680;2023-04-03T04:14:16;5.20;;;2.53;;
13415;SDS011;6779;50.150;8.680;2023-04-03T04:16:41;6.43;;;2.23;;
13415;SDS011;6779;50.150;8.680;2023-04-03T04:19:07;4.63;;;1.80;;
13415;SDS011;6779;50.150;8.680;2023-04-03T04:21:32;4.63;;;1.93;;
13415;SDS011;6779;50.150;8.680;2023-04-03T04:23:57;3.73;;;2.13;;
13415;SDS011;6779;50.150;8.680;2023-04-03T04:26:23;6.53;;;1.87;;
13415;SDS011;6779;50.150;8.680;2023-04-03T04:28:49;2.17;;;1.90;;
13415;SDS011;6779;50.150;8.680;2023-04-03T04:31:14;4.00;;;1.97;;
13415;SDS011;6779;50.150;8.680;2023-04-03T04:33:39;3.83;;;2.00;;
13415;SDS011;6779;50.150;8.680;2023-04-03T04:36:05;5.03;;;1.93;;
13415;SDS011;6779;50.150;8.680;2023-04-03T04:38:30;5.37;;;2.60;;
13415;SDS011;6779;50.150;8.680;2023-04-03T04:40:55;5.53;;;2.17;;
13415;SDS011;6779;50.150;8.680;2023-04-03T04:43:21;4.23;;;2.13;;
13415;SDS011;6779;50.150;8.680;2023-04-03T04:45:46;3.83;;;2.33;;
13415;SDS011;6779;50.150;8.680;2023-04-03T04:48:11;3.37;;;1.73;;
13415;SDS011;6779;50.150;8.680;2023-04-03T04:50:37;5.77;;;2.20;;
13415;SDS011;6779;50.150;8.680;2023-04-03T04:53:02;4.53;;;2.00;;
13415;SDS011;6779;50.150;8.680;2023-04-03T04:55:29;5.27;;;2.07;;
13415;SDS011;6779;50.150;8.680;2023-04-03T04:57:54;2.90;;;1.97;;
13415;SDS011;6779;50.150;8.680;2023-04-03T05:00:19;7.80;;;2.73;;
13415;SDS011;6779;50.150;8.680;2023-04-03T05:02:45;3.87;;;1.90;;
13415;SDS011;6779;50.150;8.680;2023-04-03T05:05:10;5.93;;;1.90;;
13415;SDS011;6779;50.150;8.680;2023-04-03T05:07:35;6.43;;;2.80;;
13415;SDS011;6779;50.150;8.680;2023-04-03T05:10:01;8.17;;;2.33;;
13415;SDS011;6779;50.150;8.680;2023-04-03T05:12:27;5.17;;;2.30;;
13415;SDS011;6779;50.150;8.680;2023-04-03T05:14:53;5.20;;;2.30;;
13415;SDS011;6779;50.150;8.680;2023-04-03T05:17:18;5.47;;;3.00;;
13415;SDS011;6779;50.150;8.680;2023-04-03T05:19:43;3.63;;;2.33;;
13415;SDS011;6779;50.150;8.680;2023-04-03T05:22:09;6.77;;;2.40;;
13415;SDS011;6779;50.150;8.680;2023-04-03T05:24:34;7.67;;;3.37;;
13415;SDS011;6779;50.150;8.680;2023-04-03T05:26:59;7.30;;;2.43;;
13415;SDS011;6779;50.150;8.680;2023-04-03T05:29:25;6.53;;;2.60;;
13415;SDS011;6779;50.150;8.680;2023-04-03T05:31:50;5.63;;;3.00;;
13415;SDS011;6779;50.150;8.680;2023-04-03T05:34:16;4.43;;;1.93;;
13415;SDS011;6779;50.150;8.680;2023-04-03T05:36:41;5.73;;;2.03;;
13415;SDS011;6779;50.150;8.680;2023-04-03T05:39:07;3.97;;;2.40;;
13415;SDS011;6779;50.150;8.680;2023-04-03T05:41:32;7.73;;;2.80;;
13415;SDS011;6779;50.150;8.680;2023-04-03T05:43:57;6.77;;;3.23;;
13415;SDS011;6779;50.150;8.680;2023-04-03T05:46:23;4.50;;;2.07;;
13415;SDS011;6779;50.150;8.680;2023-04-03T05:48:48;5.97;;;3.00;;
13415;SDS011;6779;50.150;8.680;2023-04-03T05:51:15;5.23;;;2.17;;
13415;SDS011;6779;50.150;8.680;2023-04-03T05:53:43;8.10;;;2.33;;
13415;SDS011;6779;50.150;8.680;2023-04-03T05:56:09;4.43;;;2.47;;
13415;SDS011;6779;50.150;8.680;2023-04-03T05:58:34;6.10;;;2.27;;
13415;SDS011;6779;50.150;8.680;2023-04-03T06:00:59;3.93;;;2.50;;
13415;SDS011;6779;50.150;8.680;2023-04-03T06:03:25;4.80;;;2.43;;
13415;SDS011;6779;50.150;8.680;2023-04-03T06:05:51;3.17;;;2.10;;
13415;SDS011;6779;50.150;8.680;2023-04-03T06:08:16;6.20;;;2.30;;
13415;SDS011;6779;50.150;8.680;2023-04-03T06:10:41;4.57;;;2.00;;
13415;SDS011;6779;50.150;8.680;2023-04-03T06:13:07;4.53;;;2.30;;
13415;SDS011;6779;50.150;8.680;2023-04-03T06:15:32;4.87;;;2.47;;
13415;SDS011;6779;50.150;8.680;2023-04-03T06:17:58;5.90;;;2.80;;
13415;SDS011;6779;50.150;8.680;2023-04-03T06:20:24;5.70;;;2.30;;
13415;SDS011;6779;50.150;8.680;2023-04-03T06:22:49;7.97;;;2.73;;
13415;SDS011;6779;50.150;8.680;2023-04-03T06:25:15;5.67;;;2.57;;
13415;SDS011;6779;50.150;8.680;2023-04-03T06:27:42;4.77;;;2.73;;
13415;SDS011;6779;50.150;8.680;2023-04-03T06:30:07;6.27;;;2.57;;
13415;SDS011;6779;50.150;8.680;2023-04-03T06:32:33;4.10;;;2.13;;
13415;SDS011;6779;50.150;8.680;2023-04-03T06:34:58;5.83;;;2.33;;
13415;SDS011;6779;50.150;8.680;2023-04-03T06:37:23;4.37;;;2.47;;
13415;SDS011;6779;50.150;8.680;2023-04-03T06:39:53;5.80;;;2.20;;
13415;SDS011;6779;50.150;8.680;2023-04-03T06:42:19;3.40;;;2.50;;
13415;SDS011;6779;50.150;8.680;2023-04-03T06:44:45;6.83;;;2.57;;
13415;SDS011;6779;50.150;8.680;2023-04-03T06:47:13;4.23;;;2.33;;
13415;SDS011;6779;50.150;8.680;2023-04-03T06:49:39;7.23;;;2.60;;
13415;SDS011;6779;50.150;8.680;2023-04-03T06:52:05;6.00;;;2.40;;
13415;SDS011;6779;50.150;8.680;2023-04-03T06:54:30;4.63;;;2.50;;
13415;SDS011;6779;50.150;8.680;2023-04-03T06:56:56;6.87;;;3.43;;
13415;SDS011;6779;50.150;8.680;2023-04-03T06:59:22;6.33;;;2.80;;
13415;SDS011;6779;50.150;8.680;2023-04-03T07:01:47;6.83;;;2.60;;
13415;SDS011;6779;50.150;8.680;2023-04-03T07:04:13;7.27;;;3.03;;
13415;SDS011;6779;50.150;8.680;2023-04-03T07:06:39;6.70;;;3.20;;
13415;SDS011;6779;50.150;8.680;2023-04-03T07:09:05;7.10;;;3.53;;
13415;SDS011;6779;50.150;8.680;2023-04-03T07:11:30;3.30;;;2.83;;
13415;SDS011;6779;50.150;8.680;2023-04-03T07:13:56;6.03;;;3.10;;
13415;SDS011;6779;50.150;8.680;2023-04-03T07:16:21;6.30;;;3.30;;
13415;SDS011;6779;50.150;8.680;2023-04-03T07:18:46;7.27;;;2.97;;
13415;SDS011;6779;50.150;8.680;2023-04-03T07:21:12;6.80;;;3.10;;
13415;SDS011;6779;50.150;8.680;2023-04-03T07:23:37;6.07;;;3.17;;
13415;SDS011;6779;50.150;8.680;2023-04-03T07:26:03;5.27;;;2.80;;
13415;SDS011;6779;50.150;8.680;2023-04-03T07:28:28;4.50;;;3.00;;
13415;SDS011;6779;50.150;8.680;2023-04-03T07:30:59;5.07;;;2.93;;
13415;SDS011;6779;50.150;8.680;2023-04-03T07:33:26;7.10;;;3.13;;
13415;SDS011;6779;50.150;8.680;2023-04-03T07:35:51;5.27;;;2.90;;
13415;SDS011;6779;50.150;8.680;2023-04-03T07:38:17;7.00;;;2.83;;
13415;SDS011;6779;50.150;8.680;2023-04-03T07:40:46;6.27;;;3.00;;
13415;SDS011;6779;50.150;8.680;2023-04-03T07:43:13;5.90;;;3.10;;
13415;SDS011;6779;50.150;8.680;2023-04-03T07:45:38;7.50;;;3.03;;
13415;SDS011;6779;50.150;8.680;2023-04-03T07:48:04;4.73;;;2.90;;
13415;SDS011;6779;50.150;8.680;2023-04-03T07:50:29;4.97;;;2.97;;
13415;SDS011;6779;50.150;8.680;2023-04-03T07:52:56;4.23;;;2.63;;
13415;SDS011;6779;50.150;8.680;2023-04-03T07:55:22;3.67;;;2.60;;
13415;SDS011;6779;50.150;8.680;2023-04-03T07:57:48;4.40;;;2.50;;
13415;SDS011;6779;50.150;8.680;2023-04-03T08:00:13;6.47;;;3.00;;
13415;SDS011;6779;50.150;8.680;2023-04-03T08:02:39;5.13;;;2.40;;
13415;SDS011;6779;50.150;8.680;2023-04-03T08:05:04;5.60;;;2.97;;
13415;SDS011;6779;50.150;8.680;2023-04-03T08:07:30;4.83;;;2.50;;
13415;SDS011;6779;50.150;8.680;2023-04-03T08:09:55;4.53;;;2.83;;
13415;SDS011;6779;50.150;8.680;2023-04-03T08:12:21;3.97;;;2.23;;
13415;SDS011;6779;50.150;8.680;2023-04-03T08:14:47;9.13;;;2.87;;
13415;SDS011;6779;50.150;8.680;2023-04-03T08:17:12;6.63;;;2.80;;
13415;SDS011;6779;50.150;8.680;2023-04-03T08:19:38;5.47;;;2.40;;
13415;SDS011;6779;50.150;8.680;2023-04-03T08:22:04;5.43;;;2.80;;
13415;SDS011;6779;50.150;8.680;2023-04-03T08:24:30;6.93;;;2.77;;
13415;SDS011;6779;50.150;8.680;2023-04-03T08:26:56;6.23;;;2.50;;
13415;SDS011;6779;50.150;8.680;2023-04-03T08:29:21;3.57;;;2.40;;
13415;SDS011;6779;50.150;8.680;2023-04-03T08:31:46;6.23;;;2.43;;
13415;SDS011;6779;50.150;8.680;2023-04-03T08:34:13;7.97;;;2.53;;
13415;SDS011;6779;50.150;8.680;2023-04-03T08:36:39;3.23;;;2.20;;
13415;SDS011;6779;50.150;8.680;2023-04-03T08:39:05;6.07;;;2.60;;
13415;SDS011;6779;50.150;8.680;2023-04-03T08:41:34;2.80;;;1.90;;
13415;SDS011;6779;50.150;8.680;2023-04-03T08:44:03;5.23;;;2.43;;
13415;SDS011;6779;50.150;8.680;2023-04-03T08:49:30;6.37;;;2.57;;
13415;SDS011;6779;50.150;8.680;2023-04-03T08:51:59;4.70;;;2.00;;
13415;SDS011;6779;50.150;8.680;2023-04-03T08:54:30;3.87;;;2.07;;
13415;SDS011;6779;50.150;8.680;2023-04-03T08:56:59;5.10;;;2.40;;
13415;SDS011;6779;50.150;8.680;2023-04-03T08:59:28;3.57;;;1.83;;
13415;SDS011;6779;50.150;8.680;2023-04-03T09:01:55;4.50;;;2.27;;
13415;SDS011;6779;50.150;8.680;2023-04-03T09:04:21;7.90;;;2.40;;
13415;SDS011;6779;50.150;8.680;2023-04-03T09:06:50;4.60;;;2.37;;
13415;SDS011;6779;50.150;8.680;2023-04-03T09:09:25;3.80;;;2.13;;
13415;SDS011;6779;50.150;8.680;2023-04-03T09:12:24;3.40;;;2.20;;
13415;SDS011;6779;50.150;8.680;2023-04-03T09:20:15;3.63;;;1.87;;
13415;SDS011;6779;50.150;8.680;2023-04-03T09:22:43;5.13;;;2.13;;
13415;SDS011;6779;50.150;8.680;2023-04-03T09:27:47;4.50;;;2.10;;
13415;SDS011;6779;50.150;8.680;2023-04-03T09:30:14;2.60;;;1.70;;
13415;SDS011;6779;50.150;8.680;2023-04-03T09:32:40;2.80;;;1.90;;
13415;SDS011;6779;50.150;8.680;2023-04-03T09:37:51;2.83;;;1.70;;
13415;SDS011;6779;50.150;8.680;2023-04-03T09:40:27;3.83;;;2.03;;
13415;SDS011;6779;50.150;8.680;2023-04-03T09:43:00;4.13;;;1.90;;
13415;SDS011;6779;50.150;8.680;2023-04-03T09:45:31;2.73;;;1.87;;
13415;SDS011;6779;50.150;8.680;2023-04-03T09:48:05;5.33;;;1.97;;
13415;SDS011;6779;50.150;8.680;2023-04-03T09:50:37;3.33;;;2.13;;
13415;SDS011;6779;50.150;8.680;2023-04-03T09:53:07;4.33;;;2.00;;
13415;SDS011;6779;50.150;8.680;2023-04-03T09:55:51;2.43;;;1.80;;
13415;SDS011;6779;50.150;8.680;2023-04-03T09:58:24;3.40;;;2.10;;
13415;SDS011;6779;50.150;8.680;2023-04-03T10:00:56;2.90;;;2.10;;
13415;SDS011;6779;50.150;8.680;2023-04-03T10:03:24;3.73;;;2.00;;
13415;SDS011;6779;50.150;8.680;2023-04-03T10:05:52;2.10;;;1.80;;
13415;SDS011;6779;50.150;8.680;2023-04-03T10:08:20;3.30;;;2.00;;
13415;SDS011;6779;50.150;8.680;2023-04-03T10:13:54;3.50;;;2.23;;
13415;SDS011;6779;50.150;8.680;2023-04-03T10:16:26;4.00;;;2.40;;
13415;SDS011;6779;50.150;8.680;2023-04-03T10:18:57;3.10;;;2.00;;
13415;SDS011;6779;50.150;8.680;2023-04-03T10:21:50;3.53;;;1.93;;
13415;SDS011;6779;50.150;8.680;2023-04-03T10:32:45;3.00;;;2.37;;
13415;SDS011;6779;50.150;8.680;2023-04-03T10:35:32;2.70;;;1.73;;
13415;SDS011;6779;50.150;8.680;2023-04-03T10:38:43;3.50;;;1.97;;
13415;SDS011;6779;50.150;8.680;2023-04-03T10:47:42;2.35;;;1.60;;
13415;SDS011;6779;50.150;8.680;2023-04-03T10:53:20;4.57;;;2.13;;
13415;SDS011;6779;50.150;8.680;2023-04-03T10:58:43;3.33;;;2.30;;
13415;SDS011;6779;50.150;8.680;2023-04-03T11:01:12;3.90;;;2.20;;
13415;SDS011;6779;50.150;8.680;2023-04-03T11:03:43;3.80;;;1.93;;
13415;SDS011;6779;50.150;8.680;2023-04-03T11:06:13;3.73;;;2.27;;
13415;SDS011;6779;50.150;8.680;2023-04-03T11:11:34;3.03;;;1.90;;
13415;SDS011;6779;50.150;8.680;2023-04-03T11:16:52;2.67;;;1.97;;
13415;SDS011;6779;50.150;8.680;2023-04-03T11:22:22;2.63;;;1.80;;
13415;SDS011;6779;50.150;8.680;2023-04-03T11:24:55;3.20;;;1.70;;
13415;SDS011;6779;50.150;8.680;2023-04-03T11:27:23;2.40;;;1.83;;
13415;SDS011;6779;50.150;8.680;2023-04-03T11:29:50;3.07;;;2.03;;
13415;SDS011;6779;50.150;8.680;2023-04-03T11:34:52;3.17;;;1.85;;
13415;SDS011;6779;50.150;8.680;2023-04-03T11:37:41;2.08;;;1.70;;
13415;SDS011;6779;50.150;8.680;2023-04-03T11:42:43;3.33;;;1.80;;
13415;SDS011;6779;50.150;8.680;2023-04-03T11:53:46;3.83;;;2.00;;
13415;SDS011;6779;50.150;8.680;2023-04-03T11:58:19;2.87;;;2.03;;
13415;SDS011;6779;50.150;8.680;2023-04-03T12:00:54;3.87;;;2.40;;
13415;SDS011;6779;50.150;8.680;2023-04-03T12:05:56;3.07;;;2.30;;
13415;SDS011;6779;50.150;8.680;2023-04-03T12:13:35;3.57;;;2.30;;
13415;SDS011;6779;50.150;8.680;2023-04-03T12:16:02;3.47;;;2.60;;
13415;SDS011;6779;50.150;8.680;2023-04-03T12:18:40;4.13;;;2.27;;
13415;SDS011;6779;50.150;8.680;2023-04-03T12:21:08;2.93;;;2.20;;
13415;SDS011;6779;50.150;8.680;2023-04-03T12:23:36;3.30;;;2.20;;
13415;SDS011;6779;50.150;8.680;2023-04-03T12:26:22;3.67;;;2.27;;
13415;SDS011;6779;50.150;8.680;2023-04-03T12:28:51;3.60;;;2.00;;
13415;SDS011;6779;50.150;8.680;2023-04-03T12:31:18;2.97;;;2.50;;
13415;SDS011;6779;50.150;8.680;2023-04-03T12:33:50;2.97;;;2.20;;
13415;SDS011;6779;50.150;8.680;2023-04-03T12:36:37;5.77;;;2.33;;
13415;SDS011;6779;50.150;8.680;2023-04-03T12:39:16;4.00;;;2.10;;
13415;SDS011;6779;50.150;8.680;2023-04-03T12:41:53;4.63;;;2.30;;
13415;SDS011;6779;50.150;8.680;2023-04-03T12:44:23;2.27;;;2.00;;
13415;SDS011;6779;50.150;8.680;2023-04-03T12:46:52;4.37;;;2.50;;
13415;SDS011;6779;50.150;8.680;2023-04-03T12:49:26;3.33;;;2.27;;
13415;SDS011;6779;50.150;8.680;2023-04-03T12:51:58;4.50;;;2.27;;
13415;SDS011;6779;50.150;8.680;2023-04-03T12:54:30;3.10;;;2.10;;
13415;SDS011;6779;50.150;8.680;2023-04-03T12:59:43;3.87;;;2.57;;
13415;SDS011;6779;50.150;8.680;2023-04-03T13:02:24;3.30;;;2.40;;
13415;SDS011;6779;50.150;8.680;2023-04-03T13:04:52;2.33;;;1.90;;
13415;SDS011;6779;50.150;8.680;2023-04-03T13:07:21;3.73;;;2.13;;
13415;SDS011;6779;50.150;8.680;2023-04-03T13:12:31;4.40;;;3.00;;
13415;SDS011;6779;50.150;8.680;2023-04-03T13:14:58;4.20;;;2.37;;
13415;SDS011;6779;50.150;8.680;2023-04-03T13:17:26;3.47;;;2.50;;
13415;SDS011;6779;50.150;8.680;2023-04-03T13:19:52;2.70;;;2.20;;
13415;SDS011;6779;50.150;8.680;2023-04-03T13:24:48;2.70;;;2.43;;
13415;SDS011;6779;50.150;8.680;2023-04-03T13:27:14;4.50;;;2.50;;
13415;SDS011;6779;50.150;8.680;2023-04-03T13:29:40;7.67;;;3.23;;
13415;SDS011;6779;50.150;8.680;2023-04-03T13:32:06;4.13;;;2.80;;
13415;SDS011;6779;50.150;8.680;2023-04-03T13:34:38;5.20;;;3.10;;
13415;SDS011;6779;50.150;8.680;2023-04-03T13:37:07;3.77;;;3.30;;
13415;SDS011;6779;50.150;8.680;2023-04-03T13:39:37;5.47;;;3.00;;
13415;SDS011;6779;50.150;8.680;2023-04-03T13:42:17;3.93;;;2.90;;
13415;SDS011;6779;50.150;8.680;2023-04-03T13:44:47;5.07;;;2.80;;
13415;SDS011;6779;50.150;8.680;2023-04-03T13:47:21;5.13;;;2.80;;
13415;SDS011;6779;50.150;8.680;2023-04-03T13:50:01;5.70;;;3.23;;
13415;SDS011;6779;50.150;8.680;2023-04-03T13:52:52;3.57;;;2.90;;
13415;SDS011;6779;50.150;8.680;2023-04-03T13:57:59;4.03;;;2.57;;
13415;SDS011;6779;50.150;8.680;2023-04-03T14:00:38;4.83;;;2.87;;
13415;SDS011;6779;50.150;8.680;2023-04-03T14:03:16;4.57;;;2.43;;
13415;SDS011;6779;50.150;8.680;2023-04-03T14:05:43;4.10;;;2.20;;
13415;SDS011;6779;50.150;8.680;2023-04-03T14:08:10;3.90;;;2.30;;
13415;SDS011;6779;50.150;8.680;2023-04-03T14:10:35;5.33;;;2.50;;
13415;SDS011;6779;50.150;8.680;2023-04-03T14:13:01;6.10;;;2.53;;
13415;SDS011;6779;50.150;8.680;2023-04-03T14:15:28;5.27;;;2.63;;
13415;SDS011;6779;50.150;8.680;2023-04-03T14:17:54;5.70;;;2.73;;
13415;SDS011;6779;50.150;8.680;2023-04-03T14:20:21;3.43;;;2.10;;
13415;SDS011;6779;50.150;8.680;2023-04-03T14:22:48;4.33;;;2.50;;
13415;SDS011;6779;50.150;8.680;2023-04-03T14:25:14;5.40;;;2.20;;
13415;SDS011;6779;50.150;8.680;2023-04-03T14:27:45;5.90;;;2.30;;
13415;SDS011;6779;50.150;8.680;2023-04-03T14:30:16;3.37;;;2.00;;
13415;SDS011;6779;50.150;8.680;2023-04-03T14:32:44;3.07;;;1.70;;
13415;SDS011;6779;50.150;8.680;2023-04-03T14:35:09;4.10;;;2.00;;
13415;SDS011;6779;50.150;8.680;2023-04-03T14:37:35;2.90;;;1.90;;
13415;SDS011;6779;50.150;8.680;2023-04-03T14:40:01;3.30;;;1.60;;
13415;SDS011;6779;50.150;8.680;2023-04-03T14:42:33;2.77;;;1.50;;
13415;SDS011;6779;50.150;8.680;2023-04-03T14:45:00;3.40;;;1.83;;
13415;SDS011;6779;50.150;8.680;2023-04-03T14:47:28;1.80;;;1.60;;
13415;SDS011;6779;50.150;8.680;2023-04-03T14:49:54;3.33;;;1.80;;
13415;SDS011;6779;50.150;8.680;2023-04-03T14:52:21;1.53;;;1.20;;
13415;SDS011;6779;50.150;8.680;2023-04-03T14:54:49;1.83;;;1.30;;
13415;SDS011;6779;50.150;8.680;2023-04-03T14:57:15;2.50;;;1.87;;
13415;SDS011;6779;50.150;8.680;2023-04-03T14:59:41;2.50;;;1.63;;
13415;SDS011;6779;50.150;8.680;2023-04-03T15:02:48;2.10;;;1.60;;
13415;SDS011;6779;50.150;8.680;2023-04-03T15:04:56;3.63;;;2.07;;
13415;SDS011;6779;50.150;8.680;2023-04-03T15:07:22;3.97;;;2.00;;
13415;SDS011;6779;50.150;8.680;2023-04-03T15:09:49;2.60;;;1.40;;
13415;SDS011;6779;50.150;8.680;2023-04-03T15:12:14;2.33;;;1.60;;
13415;SDS011;6779;50.150;8.680;2023-04-03T15:14:40;6.87;;;1.43;;
13415;SDS011;6779;50.150;8.680;2023-04-03T15:17:05;2.03;;;1.63;;
13415;SDS011;6779;50.150;8.680;2023-04-03T15:19:38;1.43;;;1.30;;
13415;SDS011;6779;50.150;8.680;2023-04-03T15:22:03;2.00;;;1.70;;
13415;SDS011;6779;50.150;8.680;2023-04-03T15:24:28;3.30;;;1.60;;
13415;SDS011;6779;50.150;8.680;2023-04-03T15:26:54;5.10;;;1.90;;
13415;SDS011;6779;50.150;8.680;2023-04-03T15:29:19;2.10;;;1.50;;
13415;SDS011;6779;50.150;8.680;2023-04-03T15:31:45;4.27;;;1.80;;
13415;SDS011;6779;50.150;8.680;2023-04-03T15:34:10;2.37;;;1.40;;
13415;SDS011;6779;50.150;8.680;2023-04-03T15:36:35;3.33;;;1.53;;
13415;SDS011;6779;50.150;8.680;2023-04-03T15:39:01;2.60;;;1.63;;
13415;SDS011;6779;50.150;8.680;2023-04-03T15:41:26;1.93;;;1.60;;
13415;SDS011;6779;50.150;8.680;2023-04-03T15:43:51;3.20;;;1.67;;
13415;SDS011;6779;50.150;8.680;2023-04-03T15:46:17;2.10;;;1.40;;
13415;SDS011;6779;50.150;8.680;2023-04-03T15:48:42;3.53;;;1.60;;
13415;SDS011;6779;50.150;8.680;2023-04-03T15:51:07;2.37;;;1.87;;
13415;SDS011;6779;50.150;8.680;2023-04-03T15:53:33;2.83;;;1.83;;
13415;SDS011;6779;50.150;8.680;2023-04-03T15:55:58;3.70;;;1.43;;
13415;SDS011;6779;50.150;8.680;2023-04-03T15:58:23;1.73;;;1.47;;
13415;SDS011;6779;50.150;8.680;2023-04-03T16:00:48;2.83;;;1.50;;
13415;SDS011;6779;50.150;8.680;2023-04-03T16:03:15;2.53;;;1.30;;
13415;SDS011;6779;50.150;8.680;2023-04-03T16:05:41;2.60;;;1.53;;
13415;SDS011;6779;50.150;8.680;2023-04-03T16:08:07;2.80;;;1.67;;
13415;SDS011;6779;50.150;8.680;2023-04-03T16:10:32;2.23;;;1.50;;
13415;SDS011;6779;50.150;8.680;2023-04-03T16:12:58;3.40;;;1.57;;
13415;SDS011;6779;50.150;8.680;2023-04-03T16:15:23;2.30;;;1.30;;
13415;SDS011;6779;50.150;8.680;2023-04-03T16:17:49;2.10;;;1.40;;
13415;SDS011;6779;50.150;8.680;2023-04-03T16:20:15;2.27;;;1.40;;
13415;SDS011;6779;50.150;8.680;2023-04-03T16:22:41;2.73;;;1.30;;
13415;SDS011;6779;50.150;8.680;2023-04-03T16:25:07;1.87;;;1.43;;
13415;SDS011;6779;50.150;8.680;2023-04-03T16:27:34;2.57;;;1.43;;
13415;SDS011;6779;50.150;8.680;2023-04-03T16:29:59;2.53;;;1.33;;
13415;SDS011;6779;50.150;8.680;2023-04-03T16:32:25;5.33;;;1.77;;